createdAt,value
2023-10-06T00:01:01.151Z,101721.81
2023-10-06T00:03:34.272Z,101728.38
2023-10-06T00:06:06.236Z,101708.59
2023-10-06T00:08:36.461Z,101688.03
2023-10-06T00:11:13.253Z,101734.94
2023-10-06T00:13:53.474Z,101729.19
2023-10-06T00:16:21.599Z,101739.78
2023-10-06T00:18:51.041Z,101723.47
2023-10-06T00:21:22.648Z,101711.34
2023-10-06T00:23:50.748Z,101729.78
2023-10-06T00:26:21.887Z,101731.28
2023-10-06T00:28:54.465Z,101730.25
2023-10-06T00:31:23.307Z,101745.28
2023-10-06T00:33:51.499Z,101729.59
2023-10-06T00:36:19.614Z,101739.13
2023-10-06T00:38:51.794Z,101731.66
2023-10-06T00:41:21.345Z,101721.44
2023-10-06T00:43:51.583Z,101721.44
2023-10-06T00:46:21.237Z,101723.81
2023-10-06T00:48:54.384Z,101713.50
2023-10-06T00:51:26.695Z,101727.16
2023-10-06T00:53:57.546Z,101713.38
2023-10-06T00:56:27.128Z,101703.03
2023-10-06T00:58:55.589Z,101719.59
2023-10-06T01:01:25.036Z,101710.16
2023-10-06T01:04:02.138Z,101708.81
2023-10-06T01:06:36.977Z,101706.03
2023-10-06T01:09:15.524Z,101688.94
2023-10-06T01:11:47.030Z,101687.09
2023-10-06T01:14:23.149Z,101680.00
2023-10-06T01:16:54.660Z,101682.06
2023-10-06T01:19:28.547Z,101687.66
2023-10-06T01:22:00.505Z,101675.00
2023-10-06T01:24:30.956Z,101680.25
2023-10-06T01:27:06.850Z,101680.19
2023-10-06T01:29:36.701Z,101655.31
2023-10-06T01:32:06.196Z,101675.91
2023-10-06T01:34:39.051Z,101684.00
2023-10-06T01:37:08.944Z,101666.28
2023-10-06T01:39:38.923Z,101663.25
2023-10-06T01:42:10.087Z,101663.13
2023-10-06T01:44:38.553Z,101642.06
2023-10-06T01:47:06.896Z,101658.69
2023-10-06T01:49:36.886Z,101662.84
2023-10-06T01:52:10.322Z,101669.31
2023-10-06T01:54:40.548Z,101653.69
2023-10-06T01:57:11.285Z,101678.94
2023-10-06T01:59:39.777Z,101675.00
2023-10-06T02:02:14.721Z,101675.34
2023-10-06T02:04:46.659Z,101684.94
2023-10-06T02:07:18.981Z,101681.03
2023-10-06T02:09:50.791Z,101674.88
2023-10-06T02:12:19.461Z,101672.13
2023-10-06T02:14:50.112Z,101677.19
2023-10-06T02:17:18.617Z,101670.72
2023-10-06T02:19:47.110Z,101669.03
2023-10-06T02:22:15.395Z,101674.16
2023-10-06T02:24:44.029Z,101664.44
2023-10-06T02:27:13.504Z,101662.44
2023-10-06T02:29:44.852Z,101663.09
2023-10-06T02:32:14.727Z,101661.88
2023-10-06T02:34:46.350Z,101664.97
2023-10-06T02:37:14.447Z,101653.69
2023-10-06T02:39:44.646Z,101651.09
2023-10-06T02:42:15.980Z,101661.88
2023-10-06T02:44:44.084Z,101649.41
2023-10-06T02:47:13.259Z,101647.84
2023-10-06T02:49:49.504Z,101645.94
2023-10-06T02:52:21.713Z,101633.72
2023-10-06T02:54:59.759Z,101635.06
2023-10-06T02:57:29.373Z,101641.59
2023-10-06T03:00:18.444Z,101630.28
2023-10-06T03:02:46.594Z,101629.44
2023-10-06T03:05:15.209Z,101635.25
2023-10-06T03:07:46.972Z,101634.22
2023-10-06T03:10:19.099Z,101639.78
2023-10-06T03:12:50.636Z,101646.38
2023-10-06T03:15:29.610Z,101626.06
2023-10-06T03:17:59.853Z,101623.03
2023-10-06T03:20:31.291Z,101628.81
2023-10-06T03:23:01.786Z,101636.00
2023-10-06T03:25:36.718Z,101620.97
2023-10-06T03:28:06.938Z,101617.22
2023-10-06T03:30:39.013Z,101619.59
2023-10-06T03:33:12.896Z,101605.78
2023-10-06T03:35:47.159Z,101613.38
2023-10-06T03:38:37.269Z,101606.16
2023-10-06T03:41:21.629Z,101615.19
2023-10-06T03:43:52.840Z,101651.53
2023-10-06T03:46:21.854Z,101644.94
2023-10-06T03:48:51.242Z,101649.69
2023-10-06T03:51:23.882Z,101637.41
2023-10-06T03:53:53.147Z,101630.25
2023-10-06T03:56:22.698Z,101633.47
2023-10-06T03:58:56.834Z,101627.34
2023-10-06T04:01:28.298Z,101634.63
2023-10-06T04:03:59.820Z,101626.13
2023-10-06T04:06:28.774Z,101621.66
2023-10-06T04:08:58.631Z,101640.47
2023-10-06T04:11:31.143Z,101639.47
2023-10-06T04:14:00.586Z,101624.91
2023-10-06T04:16:28.533Z,101613.84
2023-10-06T04:18:56.627Z,101636.72
2023-10-06T04:21:25.509Z,101602.53
2023-10-06T04:23:54.133Z,101623.13
2023-10-06T04:26:23.937Z,101622.91
2023-10-06T04:28:52.238Z,101601.88
2023-10-06T04:31:21.635Z,101574.53
2023-10-06T04:33:51.888Z,101607.81
2023-10-06T04:36:22.199Z,101603.78
2023-10-06T04:38:51.117Z,101601.94
2023-10-06T04:43:49.365Z,101597.28
2023-10-06T04:46:17.352Z,101588.28
2023-10-06T04:48:49.066Z,101599.34
2023-10-06T04:51:16.989Z,101595.00
2023-10-06T04:53:47.038Z,101599.22
2023-10-06T04:56:15.436Z,101598.09
2023-10-06T04:58:43.798Z,101595.50
2023-10-06T05:01:13.171Z,101595.03
2023-10-06T05:03:45.056Z,101602.88
2023-10-06T05:06:17.674Z,101596.72
2023-10-06T05:08:48.591Z,101590.63
2023-10-06T05:11:18.264Z,101584.19
2023-10-06T05:13:48.985Z,101591.16
2023-10-06T05:16:19.973Z,101573.59
2023-10-06T05:18:48.849Z,101597.66
2023-10-06T05:21:20.365Z,101596.81
2023-10-06T05:23:48.652Z,101600.59
2023-10-06T05:26:17.703Z,101580.81
2023-10-06T05:28:46.285Z,101596.16
2023-10-06T05:31:14.589Z,101604.34
2023-10-06T05:33:42.764Z,101584.75
2023-10-06T05:36:12.254Z,101609.47
2023-10-06T05:38:42.354Z,101615.59
2023-10-06T05:41:13.320Z,101603.25
2023-10-06T05:43:45.338Z,101610.41
2023-10-06T05:46:13.558Z,101620.66
2023-10-06T05:48:43.140Z,101618.22
2023-10-06T05:51:12.187Z,101603.25
2023-10-06T05:53:45.282Z,101596.75
2023-10-06T05:56:13.938Z,101590.44
2023-10-06T05:58:42.847Z,101581.25
2023-10-06T06:01:14.753Z,101584.75
2023-10-06T06:03:47.912Z,101597.91
2023-10-06T06:06:17.470Z,101579.47
2023-10-06T06:08:49.025Z,101560.44
2023-10-06T06:11:18.251Z,101608.28
2023-10-06T06:13:55.552Z,101597.81
2023-10-06T06:16:27.547Z,101592.63
2023-10-06T06:18:55.600Z,101592.69
2023-10-06T06:21:26.125Z,101588.78
2023-10-06T06:23:58.899Z,101585.13
2023-10-06T06:26:27.178Z,101570.44
2023-10-06T06:28:55.249Z,101564.13
2023-10-06T06:31:23.588Z,101576.38
2023-10-06T06:33:57.931Z,101576.66
2023-10-06T06:36:26.559Z,101580.06
2023-10-06T06:38:56.045Z,101580.72
2023-10-06T06:41:24.302Z,101593.59
2023-10-06T06:43:59.239Z,101580.25
2023-10-06T06:46:31.031Z,101589.41
2023-10-06T06:49:00.774Z,101574.81
2023-10-06T06:51:31.582Z,101592.03
2023-10-06T06:54:01.056Z,101592.16
2023-10-06T06:56:30.506Z,101574.06
2023-10-06T06:59:00.870Z,101584.97
2023-10-06T07:01:29.534Z,101588.91
2023-10-06T07:04:01.975Z,101587.50
2023-10-06T07:06:32.234Z,101592.06
2023-10-06T07:09:03.146Z,101592.34
2023-10-06T07:11:31.171Z,101588.09
2023-10-06T07:13:59.349Z,101570.88
2023-10-06T07:16:27.608Z,101561.66
2023-10-06T07:18:55.819Z,101558.84
2023-10-06T07:21:24.641Z,101568.97
2023-10-06T07:23:55.666Z,101545.44
2023-10-06T07:26:25.088Z,101567.81
2023-10-06T07:28:54.733Z,101567.09
2023-10-06T07:31:23.240Z,101555.56
2023-10-06T07:33:53.120Z,101564.28
2023-10-06T07:36:21.686Z,101566.19
2023-10-06T07:38:50.449Z,101551.28
2023-10-06T07:41:21.693Z,101533.31
2023-10-06T07:43:51.091Z,101564.75
2023-10-06T07:46:19.544Z,101553.97
2023-10-06T07:48:48.388Z,101525.09
2023-10-06T07:51:17.501Z,101551.34
2023-10-06T07:53:45.768Z,101553.16
2023-10-06T07:56:15.714Z,101550.47
2023-10-06T07:58:44.654Z,101529.22
2023-10-06T08:01:15.178Z,101546.66
2023-10-06T08:03:43.558Z,101567.19
2023-10-06T08:06:12.900Z,101544.31
2023-10-06T08:08:40.889Z,101554.09
2023-10-06T08:11:10.535Z,101536.56
2023-10-06T08:13:40.002Z,101555.41
2023-10-06T08:16:08.901Z,101561.75
2023-10-06T08:18:38.299Z,101556.09
2023-10-06T08:21:06.804Z,101528.13
2023-10-06T08:23:36.459Z,101555.50
2023-10-06T08:26:09.624Z,101552.13
2023-10-06T08:28:38.954Z,101552.34
2023-10-06T08:31:06.869Z,101541.72
2023-10-06T08:33:37.414Z,101538.34
2023-10-06T08:36:09.668Z,101523.91
2023-10-06T08:38:37.661Z,101544.06
2023-10-06T08:41:06.791Z,101544.91
2023-10-06T08:43:40.245Z,101547.03
2023-10-06T08:46:09.491Z,101559.13
2023-10-06T08:48:39.759Z,101554.88
2023-10-06T08:51:12.418Z,101558.28
2023-10-06T08:53:43.092Z,101556.13
2023-10-06T08:56:16.114Z,101557.44
2023-10-06T08:58:45.456Z,101541.47
2023-10-06T09:01:15.363Z,101537.88
2023-10-06T09:03:43.441Z,101564.78
2023-10-06T09:06:15.289Z,101564.81
2023-10-06T09:08:44.815Z,101551.00
2023-10-06T09:11:13.211Z,101551.50
2023-10-06T09:13:42.914Z,101552.09
2023-10-06T09:16:12.925Z,101551.25
2023-10-06T09:18:44.549Z,101545.75
2023-10-06T09:21:20.886Z,101529.63
2023-10-06T09:23:52.875Z,101540.81
2023-10-06T09:26:30.752Z,101532.38
2023-10-06T09:29:05.782Z,101536.22
2023-10-06T09:31:40.336Z,101535.53
2023-10-06T09:34:16.107Z,101542.78
2023-10-06T09:36:47.522Z,101529.56
2023-10-06T09:39:27.956Z,101542.94
2023-10-06T09:41:56.199Z,101517.53
2023-10-06T09:44:25.879Z,101536.94
2023-10-06T09:46:59.355Z,101531.03
2023-10-06T09:49:32.076Z,101525.56
2023-10-06T09:52:08.915Z,101532.97
2023-10-06T09:54:39.665Z,101529.13
2023-10-06T09:57:13.891Z,101515.78
2023-10-06T09:59:42.208Z,101510.25
2023-10-06T10:02:15.512Z,101506.91
2023-10-06T10:04:47.681Z,101508.13
2023-10-06T10:07:19.319Z,101512.75
2023-10-06T10:09:47.592Z,101504.91
2023-10-06T10:12:28.355Z,101514.44
2023-10-06T10:15:05.326Z,101491.63
2023-10-06T10:17:41.258Z,101483.81
2023-10-06T10:20:10.640Z,101501.19
2023-10-06T10:22:42.098Z,101487.63
2023-10-06T10:27:46.017Z,101485.53
2023-10-06T10:30:15.796Z,101479.19
2023-10-06T10:32:44.618Z,101466.22
2023-10-06T10:35:18.387Z,101466.59
2023-10-06T10:38:05.820Z,101469.19
2023-10-06T10:40:50.382Z,101473.00
2023-10-06T10:43:23.168Z,101468.97
2023-10-06T10:45:54.897Z,101488.28
2023-10-06T10:48:23.856Z,101463.03
2023-10-06T10:50:59.839Z,101475.78
2023-10-06T10:53:34.850Z,101468.59
2023-10-06T10:56:05.689Z,101466.91
2023-10-06T10:58:56.241Z,101475.31
2023-10-06T11:01:27.555Z,101478.31
2023-10-06T11:04:19.275Z,101460.88
2023-10-06T11:06:49.577Z,101462.91
2023-10-06T11:09:31.473Z,101461.78
2023-10-06T11:12:29.344Z,101444.44
2023-10-06T11:15:14.831Z,101424.94
2023-10-06T11:17:45.400Z,101428.63
2023-10-06T11:20:17.096Z,101425.63
2023-10-06T11:22:57.128Z,101423.66
2023-10-06T11:25:30.628Z,101424.91
2023-10-06T11:28:09.509Z,101418.03
2023-10-06T11:30:45.793Z,101410.53
2023-10-06T11:33:24.210Z,101425.88
2023-10-06T11:35:59.637Z,101415.91
2023-10-06T11:38:31.161Z,101425.28
2023-10-06T11:41:00.718Z,101428.78
2023-10-06T11:43:31.863Z,101416.16
2023-10-06T11:46:06.165Z,101419.81
2023-10-06T11:48:43.749Z,101409.63
2023-10-06T11:51:23.741Z,101398.63
2023-10-06T11:54:12.919Z,101395.88
2023-10-06T11:56:51.119Z,101386.81
2023-10-06T11:59:23.930Z,101385.41
2023-10-06T12:01:52.625Z,101380.34
2023-10-06T12:04:31.800Z,101363.69
2023-10-06T12:07:06.490Z,101363.13
2023-10-06T12:09:35.763Z,101367.22
2023-10-06T12:12:09.295Z,101370.41
2023-10-06T12:14:40.647Z,101369.59
2023-10-06T12:17:08.816Z,101367.00
2023-10-06T12:19:38.381Z,101355.88
2023-10-06T12:22:06.463Z,101345.94
2023-10-06T12:24:34.429Z,101339.03
2023-10-06T12:27:06.428Z,101343.34
2023-10-06T12:29:34.412Z,101343.00
2023-10-06T12:32:05.218Z,101332.72
2023-10-06T12:34:37.632Z,101340.16
2023-10-06T12:37:08.633Z,101335.28
2023-10-06T12:39:37.210Z,101343.38
2023-10-06T12:42:07.410Z,101341.44
2023-10-06T12:44:40.776Z,101344.31
2023-10-06T12:47:13.462Z,101320.44
2023-10-06T12:49:45.411Z,101349.19
2023-10-06T12:52:17.592Z,101337.09
2023-10-06T12:57:26.131Z,101343.97
2023-10-06T13:00:04.560Z,101327.91
2023-10-06T13:02:36.606Z,101321.22
2023-10-06T13:05:18.659Z,101336.97
2023-10-06T13:07:48.653Z,101313.63
2023-10-06T13:10:23.204Z,101318.09
2023-10-06T13:12:53.041Z,101327.91
2023-10-06T13:15:21.911Z,101317.97
2023-10-06T13:17:51.009Z,101310.69
2023-10-06T13:20:19.317Z,101314.38
2023-10-06T13:22:49.752Z,101310.50
2023-10-06T13:25:19.314Z,101313.34
2023-10-06T13:27:49.872Z,101314.25
2023-10-06T13:30:21.260Z,101313.78
2023-10-06T13:32:53.111Z,101310.44
2023-10-06T13:35:21.983Z,101309.88
2023-10-06T13:37:50.258Z,101312.38
2023-10-06T13:40:20.247Z,101299.47
2023-10-06T13:42:49.073Z,101309.53
2023-10-06T13:45:21.809Z,101298.50
2023-10-06T13:47:51.767Z,101281.34
2023-10-06T13:50:20.334Z,101289.41
2023-10-06T13:52:50.595Z,101285.34
2023-10-06T13:55:20.427Z,101298.69
2023-10-06T13:57:52.767Z,101291.31
2023-10-06T14:00:30.245Z,101282.56
2023-10-06T14:03:01.433Z,101294.19
2023-10-06T14:05:33.813Z,101290.22
2023-10-06T14:08:04.897Z,101284.28
2023-10-06T14:10:36.855Z,101293.19
2023-10-06T14:13:12.816Z,101277.09
2023-10-06T14:15:46.225Z,101273.47
2023-10-06T14:18:17.416Z,101266.44
2023-10-06T14:20:47.398Z,101275.63
2023-10-06T14:23:16.142Z,101274.94
2023-10-06T14:25:46.179Z,101261.59
2023-10-06T14:28:14.712Z,101261.41
2023-10-06T14:30:45.034Z,101257.31
2023-10-06T14:33:18.795Z,101252.53
2023-10-06T14:35:53.754Z,101269.25
2023-10-06T14:38:40.601Z,101263.06
2023-10-06T14:41:27.615Z,101242.69
2023-10-06T14:44:14.982Z,101268.31
2023-10-06T14:46:50.856Z,101264.28
2023-10-06T14:49:24.488Z,101262.09
2023-10-06T14:51:55.248Z,101268.91
2023-10-06T14:54:26.814Z,101266.53
2023-10-06T14:56:57.215Z,101270.13
2023-10-06T14:59:25.616Z,101262.94
2023-10-06T15:01:56.024Z,101264.47
2023-10-06T15:04:24.200Z,101258.31
2023-10-06T15:06:53.705Z,101254.97
2023-10-06T15:09:22.440Z,101257.88
2023-10-06T15:11:51.544Z,101262.94
2023-10-06T15:14:25.235Z,101265.56
2023-10-06T15:16:56.718Z,101257.03
2023-10-06T15:19:27.454Z,101246.44
2023-10-06T15:21:57.977Z,101262.09
2023-10-06T15:24:26.005Z,101244.56
2023-10-06T15:26:54.935Z,101255.09
2023-10-06T15:29:25.942Z,101253.25
2023-10-06T15:31:57.060Z,101256.63
2023-10-06T15:34:27.833Z,101260.94
2023-10-06T15:36:56.038Z,101247.59
2023-10-06T15:39:24.903Z,101249.94
2023-10-06T15:41:52.904Z,101252.50
2023-10-06T15:44:21.743Z,101262.84
2023-10-06T15:46:49.751Z,101261.84
2023-10-06T15:49:20.680Z,101265.22
2023-10-06T15:51:51.112Z,101246.34
2023-10-06T15:54:19.152Z,101259.28
2023-10-06T15:56:48.086Z,101258.13
2023-10-06T15:59:18.793Z,101254.78
2023-10-06T16:01:48.439Z,101251.75
2023-10-06T16:04:18.081Z,101251.97
2023-10-06T16:06:48.773Z,101255.16
2023-10-06T16:09:18.308Z,101259.44
2023-10-06T16:11:47.144Z,101255.66
2023-10-06T16:14:17.111Z,101242.28
2023-10-06T16:16:47.354Z,101255.22
2023-10-06T16:19:15.630Z,101243.41
2023-10-06T16:21:44.367Z,101239.41
2023-10-06T16:24:15.235Z,101245.75
2023-10-06T16:26:43.953Z,101252.78
2023-10-06T16:32:01.542Z,101250.38
2023-10-06T16:34:30.354Z,101241.28
2023-10-06T16:36:58.246Z,101240.88
2023-10-06T16:39:27.492Z,101239.84
2023-10-06T16:41:55.629Z,101228.22
2023-10-06T16:44:24.604Z,101223.94
2023-10-06T16:46:52.656Z,101225.25
2023-10-06T16:49:20.553Z,101213.41
2023-10-06T16:51:49.082Z,101219.81
2023-10-06T16:54:17.212Z,101219.66
2023-10-06T16:56:46.862Z,101231.31
2023-10-06T16:59:15.393Z,101236.81
2023-10-06T17:01:44.404Z,101226.44
2023-10-06T17:04:16.157Z,101220.09
2023-10-06T17:06:47.038Z,101214.78
2023-10-06T17:09:19.779Z,101222.56
2023-10-06T17:11:50.073Z,101213.94
2023-10-06T17:14:18.135Z,101219.50
2023-10-06T17:16:46.260Z,101215.53
2023-10-06T17:19:14.744Z,101226.13
2023-10-06T17:21:43.389Z,101226.75
2023-10-06T17:24:12.470Z,101244.53
2023-10-06T17:26:41.120Z,101246.47
2023-10-06T17:29:12.036Z,101238.25
2023-10-06T17:31:40.260Z,101250.72
2023-10-06T17:34:08.295Z,101241.63
2023-10-06T17:36:36.163Z,101243.72
2023-10-06T17:39:04.612Z,101241.63
2023-10-06T17:41:32.624Z,101236.97
2023-10-06T17:44:00.519Z,101234.41
2023-10-06T17:46:30.214Z,101243.72
2023-10-06T17:48:58.256Z,101245.44
2023-10-06T17:51:26.665Z,101248.00
2023-10-06T17:53:54.650Z,101246.06
2023-10-06T17:56:22.584Z,101240.13
2023-10-06T17:58:51.314Z,101245.03
2023-10-06T18:01:20.160Z,101243.75
2023-10-06T18:03:49.922Z,101237.84
2023-10-06T18:06:18.916Z,101227.22
2023-10-06T18:08:47.020Z,101237.63
2023-10-06T18:11:15.373Z,101229.38
2023-10-06T18:13:43.825Z,101238.25
2023-10-06T18:16:12.094Z,101231.66
2023-10-06T18:18:41.617Z,101228.91
2023-10-06T18:21:10.946Z,101225.31
2023-10-06T18:23:38.766Z,101222.38
2023-10-06T18:26:12.260Z,101219.63
2023-10-06T18:28:40.803Z,101214.13
2023-10-06T18:31:09.085Z,101217.94
2023-10-06T18:33:38.010Z,101215.41
2023-10-06T18:36:10.149Z,101228.72
2023-10-06T18:38:39.732Z,101225.16
2023-10-06T18:41:08.932Z,101214.19
2023-10-06T18:43:37.046Z,101233.84
2023-10-06T18:46:06.976Z,101219.47
2023-10-06T18:48:34.961Z,101212.28
2023-10-06T18:51:04.926Z,101212.50
2023-10-06T18:53:33.967Z,101229.88
2023-10-06T18:56:04.588Z,101231.13
2023-10-06T18:58:33.344Z,101213.41
2023-10-06T19:01:01.611Z,101225.41
2023-10-06T19:03:29.622Z,101230.75
2023-10-06T19:06:04.038Z,101227.78
2023-10-06T19:08:34.697Z,101232.84
2023-10-06T19:11:10.606Z,101233.72
2023-10-06T19:13:39.164Z,101219.78
2023-10-06T19:16:11.024Z,101231.22
2023-10-06T19:18:40.949Z,101236.25
2023-10-06T19:21:09.546Z,101240.91
2023-10-06T19:23:38.672Z,101218.28
2023-10-06T19:26:10.377Z,101206.88
2023-10-06T19:28:38.318Z,101219.97
2023-10-06T19:31:06.628Z,101234.38
2023-10-06T19:33:35.003Z,101217.19
2023-10-06T19:36:06.604Z,101234.38
2023-10-06T19:38:35.224Z,101237.13
2023-10-06T19:41:04.339Z,101235.22
2023-10-06T19:43:35.686Z,101232.25
2023-10-06T19:46:05.963Z,101231.00
2023-10-06T19:48:33.949Z,101230.34
2023-10-06T19:51:04.361Z,101246.00
2023-10-06T19:53:32.216Z,101234.59
2023-10-06T19:56:00.166Z,101236.72
2023-10-06T19:58:28.984Z,101233.56
2023-10-06T20:00:59.171Z,101237.78
2023-10-06T20:03:27.669Z,101237.78
2023-10-06T20:05:57.642Z,101228.50
2023-10-06T20:08:25.781Z,101234.63
2023-10-06T20:10:55.318Z,101236.31
2023-10-06T20:13:24.940Z,101232.72
2023-10-06T20:15:53.156Z,101233.56
2023-10-06T20:18:22.705Z,101220.03
2023-10-06T20:20:53.339Z,101221.94
2023-10-06T20:23:21.898Z,101216.03
2023-10-06T20:25:56.497Z,101215.78
2023-10-06T20:28:27.684Z,101216.22
2023-10-06T20:30:58.036Z,101216.22
2023-10-06T20:33:27.703Z,101213.69
2023-10-06T20:35:55.774Z,101219.41
2023-10-06T20:38:23.886Z,101208.22
2023-10-06T20:40:52.149Z,101217.28
2023-10-06T20:43:20.425Z,101218.13
2023-10-06T20:45:49.152Z,101215.63
2023-10-06T20:48:17.267Z,101224.06
2023-10-06T20:50:46.573Z,101210.97
2023-10-06T20:53:14.689Z,101228.47
2023-10-06T20:55:45.698Z,101217.31
2023-10-06T20:58:15.882Z,101208.63
2023-10-06T21:00:44.367Z,101220.25
2023-10-06T21:03:15.048Z,101221.53
2023-10-06T21:05:43.439Z,101223.63
2023-10-06T21:08:15.339Z,101202.72
2023-10-06T21:10:43.585Z,101178.78
2023-10-06T21:13:12.284Z,101204.16
2023-10-06T21:15:43.304Z,101220.06
2023-10-06T21:18:13.194Z,101228.09
2023-10-06T21:20:41.374Z,101231.88
2023-10-06T21:23:09.642Z,101227.47
2023-10-06T21:25:39.955Z,101233.78
2023-10-06T21:28:07.960Z,101242.22
2023-10-06T21:30:36.281Z,101216.63
2023-10-06T21:33:04.545Z,101219.81
2023-10-06T21:35:32.799Z,101206.69
2023-10-06T21:38:00.850Z,101216.63
2023-10-06T21:40:29.072Z,101218.97
2023-10-06T21:42:58.797Z,101221.91
2023-10-06T21:45:26.833Z,101215.78
2023-10-06T21:47:55.992Z,101209.66
2023-10-06T21:50:25.237Z,101207.53
2023-10-06T21:52:53.325Z,101215.78
2023-10-06T21:55:21.364Z,101216.41
2023-10-06T21:57:49.233Z,101211.31
2023-10-06T22:00:27.094Z,101213.03
2023-10-06T22:02:56.141Z,101202.47
2023-10-06T22:05:24.578Z,101223.19
2023-10-06T22:07:52.808Z,101214.72
2023-10-06T22:10:21.005Z,101207.13
2023-10-06T22:12:49.926Z,101201.81
2023-10-06T22:15:19.255Z,101181.31
2023-10-06T22:17:48.175Z,101203.72
2023-10-06T22:20:16.371Z,101191.88
2023-10-06T22:22:44.297Z,101191.44
2023-10-06T22:25:12.876Z,101196.94
2023-10-06T22:27:41.757Z,101202.03
2023-10-06T22:30:12.531Z,101204.53
2023-10-06T22:32:42.550Z,101192.50
2023-10-06T22:35:11.938Z,101204.13
2023-10-06T22:37:39.960Z,101192.91
2023-10-06T22:40:17.571Z,101200.75
2023-10-06T22:42:48.832Z,101191.03
2023-10-06T22:45:17.360Z,101192.72
2023-10-06T22:47:49.371Z,101199.47
2023-10-06T22:50:20.145Z,101195.66
2023-10-06T22:52:50.616Z,101186.81
2023-10-06T22:55:19.968Z,101180.88
2023-10-06T22:57:49.911Z,101181.28
2023-10-06T23:00:19.083Z,101171.31
2023-10-06T23:02:49.532Z,101171.97
2023-10-06T23:05:17.597Z,101169.47
2023-10-06T23:07:47.915Z,101151.06
2023-10-06T23:10:17.298Z,101174.91
2023-10-06T23:12:48.947Z,101171.56
2023-10-06T23:15:20.904Z,101173.03
2023-10-06T23:17:51.524Z,101161.59
2023-10-06T23:20:29.474Z,101167.31
2023-10-06T23:23:00.283Z,101176.63
2023-10-06T23:25:37.549Z,101173.22
2023-10-06T23:28:08.117Z,101166.44
2023-10-06T23:30:37.970Z,101147.19
2023-10-06T23:33:07.990Z,101163.06
2023-10-06T23:35:36.188Z,101153.75
2023-10-06T23:38:07.792Z,101174.47
2023-10-06T23:40:39.773Z,101163.47
2023-10-06T23:43:09.541Z,101178.94
2023-10-06T23:45:38.785Z,101171.94
2023-10-06T23:48:17.182Z,101165.81
2023-10-06T23:50:53.358Z,101166.22
2023-10-06T23:53:28.442Z,101150.16
2023-10-06T23:56:02.278Z,101147.22
2023-10-06T23:58:35.462Z,101138.13
